createdAt,value
2022-12-28T00:00:33.354Z,1.67
2022-12-28T00:01:35.782Z,1.63
2022-12-28T00:02:38.132Z,1.61
2022-12-28T00:03:41.093Z,1.57
2022-12-28T00:04:43.459Z,1.58
2022-12-28T00:05:46.037Z,1.61
2022-12-28T00:06:50.550Z,1.64
2022-12-28T00:07:53.076Z,1.52
2022-12-28T00:08:56.768Z,1.60
2022-12-28T00:09:59.205Z,1.69
2022-12-28T00:11:09.073Z,1.71
2022-12-28T00:12:13.730Z,1.62
2022-12-28T00:13:15.949Z,1.59
2022-12-28T00:14:18.207Z,1.71
2022-12-28T00:15:20.495Z,1.70
2022-12-28T00:16:32.138Z,1.80
2022-12-28T00:17:34.711Z,1.79
2022-12-28T00:18:37.524Z,1.74
2022-12-28T00:19:39.816Z,1.71
2022-12-28T00:20:42.061Z,1.75
2022-12-28T00:21:45.678Z,1.76
2022-12-28T00:22:47.965Z,1.72
2022-12-28T00:23:57.485Z,1.77
2022-12-28T00:25:00.564Z,1.87
2022-12-28T00:26:11.912Z,1.91
2022-12-28T00:27:14.168Z,1.95
2022-12-28T00:28:16.671Z,1.85
2022-12-28T00:29:19.195Z,1.88
2022-12-28T00:30:22.075Z,1.87
2022-12-28T00:31:24.803Z,1.94
2022-12-28T00:32:27.200Z,1.73
2022-12-28T00:33:30.513Z,1.65
2022-12-28T00:34:33.021Z,1.59
2022-12-28T00:35:35.426Z,1.61
2022-12-28T00:37:10.803Z,1.41
2022-12-28T00:38:00.765Z,1.14
2022-12-28T00:39:03.631Z,1.26
2022-12-28T00:40:10.227Z,1.42
2022-12-28T00:41:12.777Z,1.55
2022-12-28T00:42:18.470Z,1.62
2022-12-28T00:43:21.839Z,1.51
2022-12-28T00:44:24.176Z,1.50
2022-12-28T00:45:26.607Z,1.36
2022-12-28T00:46:29.167Z,1.16
2022-12-28T00:47:32.018Z,1.26
2022-12-28T00:48:34.532Z,1.29
2022-12-28T00:49:36.939Z,1.36
2022-12-28T00:50:39.732Z,1.29
2022-12-28T00:51:42.027Z,1.29
2022-12-28T00:52:44.247Z,1.42
2022-12-28T00:53:46.935Z,1.53
2022-12-28T00:54:49.254Z,1.43
2022-12-28T00:55:51.585Z,1.46
2022-12-28T00:56:53.841Z,1.57
2022-12-28T00:57:59.475Z,1.57
2022-12-28T00:59:01.912Z,1.74
2022-12-28T01:00:04.823Z,1.90
2022-12-28T01:01:12.387Z,1.97
2022-12-28T01:02:14.775Z,2.02
2022-12-28T01:03:17.501Z,2.07
2022-12-28T01:04:19.873Z,1.98
2022-12-28T01:05:23.339Z,2.04
2022-12-28T01:06:26.334Z,2.15
2022-12-28T01:07:28.612Z,2.20
2022-12-28T01:08:30.942Z,2.21
2022-12-28T01:09:33.324Z,2.10
2022-12-28T01:10:38.283Z,2.29
2022-12-28T01:11:40.505Z,2.32
2022-12-28T01:12:42.750Z,2.35
2022-12-28T01:13:45.627Z,2.29
2022-12-28T01:14:47.894Z,2.27
2022-12-28T01:15:50.180Z,2.26
2022-12-28T01:16:52.449Z,2.36
2022-12-28T01:17:54.780Z,2.45
2022-12-28T01:18:59.680Z,2.24
2022-12-28T01:20:02.223Z,2.28
2022-12-28T01:21:13.217Z,2.43
2022-12-28T01:22:17.975Z,2.25
2022-12-28T01:23:21.028Z,2.25
2022-12-28T01:24:23.612Z,2.38
2022-12-28T01:25:26.352Z,2.40
2022-12-28T01:26:29.396Z,2.46
2022-12-28T01:27:32.214Z,2.42
2022-12-28T01:28:35.129Z,2.23
2022-12-28T01:29:38.260Z,2.15
2022-12-28T01:30:40.629Z,2.00
2022-12-28T01:31:42.933Z,2.11
2022-12-28T01:32:48.099Z,2.29
2022-12-28T01:33:50.363Z,2.38
2022-12-28T01:34:52.641Z,2.33
2022-12-28T01:35:54.903Z,2.28
2022-12-28T01:36:57.143Z,2.36
2022-12-28T01:37:59.392Z,2.51
2022-12-28T01:39:04.822Z,2.58
2022-12-28T01:40:07.478Z,2.55
2022-12-28T01:41:12.629Z,2.55
2022-12-28T01:42:19.477Z,2.53
2022-12-28T01:43:39.685Z,2.53
2022-12-28T01:44:44.548Z,2.54
2022-12-28T01:45:52.676Z,2.52
2022-12-28T01:47:03.607Z,2.36
2022-12-28T01:48:16.609Z,2.37
2022-12-28T01:49:36.885Z,2.57
2022-12-28T01:50:42.802Z,2.54
2022-12-28T01:51:53.932Z,2.49
2022-12-28T01:53:00.995Z,2.45
2022-12-28T01:54:04.322Z,2.59
2022-12-28T01:55:10.659Z,2.57
2022-12-28T01:56:13.106Z,2.54
2022-12-28T01:57:16.090Z,2.58
2022-12-28T01:58:25.959Z,2.64
2022-12-28T01:59:33.439Z,2.78
2022-12-28T02:01:41.660Z,2.81
2022-12-28T02:02:56.563Z,2.67
2022-12-28T02:03:58.877Z,2.70
2022-12-28T02:05:01.630Z,2.65
2022-12-28T02:06:08.113Z,2.61
2022-12-28T02:07:21.811Z,2.52
2022-12-28T02:08:41.344Z,2.59
2022-12-28T02:09:44.173Z,2.57
2022-12-28T02:11:06.793Z,2.73
2022-12-28T02:12:12.298Z,2.78
2022-12-28T02:13:16.421Z,2.85
2022-12-28T02:14:20.116Z,2.85
2022-12-28T02:15:23.403Z,2.83
2022-12-28T02:16:26.074Z,2.86
2022-12-28T02:17:28.645Z,2.83
2022-12-28T02:18:31.345Z,2.85
2022-12-28T02:19:37.734Z,2.90
2022-12-28T02:21:00.858Z,2.81
2022-12-28T02:22:29.198Z,2.67
2022-12-28T02:23:53.099Z,2.52
2022-12-28T02:25:13.254Z,2.54
2022-12-28T02:26:31.955Z,2.50
2022-12-28T02:27:45.109Z,2.62
2022-12-28T02:29:13.037Z,2.61
2022-12-28T02:30:16.444Z,2.61
2022-12-28T02:31:29.828Z,2.72
2022-12-28T02:32:59.164Z,2.83
2022-12-28T02:34:14.677Z,2.79
2022-12-28T02:35:29.694Z,2.86
2022-12-28T02:36:39.227Z,3.03
2022-12-28T02:38:02.981Z,2.97
2022-12-28T02:39:21.331Z,2.88
2022-12-28T02:40:29.131Z,2.94
2022-12-28T02:41:34.604Z,2.99
2022-12-28T02:42:39.511Z,3.06
2022-12-28T02:43:42.363Z,3.08
2022-12-28T02:45:03.181Z,3.07
2022-12-28T02:46:37.422Z,3.07
2022-12-28T02:48:02.270Z,2.98
2022-12-28T02:49:46.216Z,2.94
2022-12-28T02:51:05.525Z,2.97
2022-12-28T02:52:30.176Z,2.96
2022-12-28T02:54:08.297Z,3.04
2022-12-28T02:55:56.095Z,3.15
2022-12-28T02:57:11.192Z,3.18
2022-12-28T02:58:34.469Z,3.05
2022-12-28T02:59:58.004Z,2.97
2022-12-28T03:01:00.213Z,3.01
2022-12-28T03:02:28.663Z,3.14
2022-12-28T03:03:59.469Z,3.09
2022-12-28T03:05:47.492Z,3.14
2022-12-28T03:07:28.168Z,3.21
2022-12-28T03:08:53.699Z,3.26
2022-12-28T03:09:58.383Z,3.27
2022-12-28T03:11:11.734Z,3.26
2022-12-28T03:12:26.590Z,3.24
2022-12-28T03:13:43.933Z,3.19
2022-12-28T03:14:54.013Z,3.26
2022-12-28T03:16:04.688Z,3.25
2022-12-28T03:17:28.504Z,3.34
2022-12-28T03:18:51.631Z,3.35
2022-12-28T03:20:18.064Z,3.41
2022-12-28T03:21:39.908Z,3.44
2022-12-28T03:23:04.192Z,3.45
2022-12-28T03:24:28.898Z,3.47
2022-12-28T03:25:56.331Z,3.45
2022-12-28T03:27:29.590Z,3.53
2022-12-28T03:28:54.080Z,3.61
2022-12-28T03:30:21.016Z,3.57
2022-12-28T03:31:27.158Z,3.58
2022-12-28T03:32:35.027Z,3.61
2022-12-28T03:33:44.812Z,3.58
2022-12-28T03:34:47.167Z,3.55
2022-12-28T03:35:57.820Z,3.62
2022-12-28T03:37:09.209Z,3.69
2022-12-28T03:38:28.258Z,3.78
2022-12-28T03:39:38.889Z,3.74
2022-12-28T03:40:59.533Z,3.75
2022-12-28T03:42:32.501Z,3.74
2022-12-28T03:43:45.701Z,3.65
2022-12-28T03:45:02.080Z,3.61
2022-12-28T03:46:07.263Z,3.65
2022-12-28T03:47:13.050Z,3.70
2022-12-28T03:48:16.264Z,3.76
2022-12-28T03:49:19.427Z,3.77
2022-12-28T03:50:23.163Z,3.76
2022-12-28T03:51:28.140Z,3.82
2022-12-28T03:52:32.286Z,3.87
2022-12-28T03:53:43.083Z,3.81
2022-12-28T03:54:48.646Z,3.86
2022-12-28T03:55:51.708Z,3.91
2022-12-28T03:56:55.697Z,3.86
2022-12-28T03:58:04.618Z,3.87
2022-12-28T03:59:08.297Z,3.88
2022-12-28T04:00:16.500Z,3.93
2022-12-28T04:01:19.871Z,4.00
2022-12-28T04:02:22.545Z,4.03
2022-12-28T04:03:24.885Z,4.07
2022-12-28T04:04:27.105Z,4.06
2022-12-28T04:05:29.334Z,4.16
2022-12-28T04:06:31.556Z,4.17
2022-12-28T04:07:33.837Z,4.12
2022-12-28T04:08:36.659Z,4.13
2022-12-28T04:09:40.575Z,4.15
2022-12-28T04:10:45.803Z,4.10
2022-12-28T04:11:48.049Z,4.06
2022-12-28T04:12:58.050Z,4.08
2022-12-28T04:14:10.615Z,4.11
2022-12-28T04:15:17.518Z,4.05
2022-12-28T04:16:21.653Z,4.13
2022-12-28T04:17:24.011Z,4.10
2022-12-28T04:18:26.615Z,4.06
2022-12-28T04:19:28.861Z,4.05
2022-12-28T04:20:32.052Z,4.01
2022-12-28T04:21:34.344Z,4.03
2022-12-28T04:22:36.880Z,4.02
2022-12-28T04:23:39.130Z,3.93
2022-12-28T04:24:56.444Z,3.99
2022-12-28T04:26:02.996Z,4.04
2022-12-28T04:27:05.408Z,4.07
2022-12-28T04:28:08.124Z,4.07
2022-12-28T04:29:28.861Z,3.90
2022-12-28T04:30:35.714Z,3.94
2022-12-28T04:31:38.073Z,4.11
2022-12-28T04:32:44.755Z,4.12
2022-12-28T04:33:48.156Z,4.26
2022-12-28T04:34:50.368Z,4.22
2022-12-28T04:35:54.776Z,4.23
2022-12-28T04:36:57.284Z,4.26
2022-12-28T04:37:59.636Z,4.26
2022-12-28T04:39:01.828Z,4.34
2022-12-28T04:40:04.432Z,4.24
2022-12-28T04:41:07.896Z,4.26
2022-12-28T04:42:10.116Z,4.34
2022-12-28T04:43:12.630Z,4.40
2022-12-28T04:44:14.848Z,4.35
2022-12-28T04:45:21.953Z,4.43
2022-12-28T04:46:25.086Z,4.43
2022-12-28T04:47:28.583Z,4.42
2022-12-28T04:48:31.608Z,4.31
2022-12-28T04:49:33.815Z,4.33
2022-12-28T04:50:36.678Z,4.30
2022-12-28T04:51:38.912Z,4.38
2022-12-28T04:52:41.188Z,4.42
2022-12-28T04:53:43.617Z,4.38
2022-12-28T04:54:45.804Z,4.32
2022-12-28T04:55:48.095Z,4.33
2022-12-28T04:56:50.335Z,4.31
2022-12-28T04:57:52.509Z,4.31
2022-12-28T04:58:56.412Z,4.45
2022-12-28T04:59:58.695Z,4.48
2022-12-28T05:01:27.461Z,4.49
2022-12-28T05:02:30.860Z,4.51
2022-12-28T05:03:33.251Z,4.59
2022-12-28T05:04:35.464Z,4.54
2022-12-28T05:05:37.811Z,4.56
2022-12-28T05:06:40.095Z,4.49
2022-12-28T05:07:42.290Z,4.44
2022-12-28T05:08:45.314Z,4.54
2022-12-28T05:09:47.500Z,4.46
2022-12-28T05:10:49.814Z,4.47
2022-12-28T05:11:52.130Z,4.55
2022-12-28T05:12:55.131Z,4.59
2022-12-28T05:13:57.933Z,4.58
2022-12-28T05:15:00.264Z,4.59
2022-12-28T05:16:04.419Z,4.59
2022-12-28T05:17:06.738Z,4.60
2022-12-28T05:18:08.946Z,4.59
2022-12-28T05:19:11.159Z,4.65
2022-12-28T05:20:16.369Z,4.66
2022-12-28T05:21:24.567Z,4.74
2022-12-28T05:22:26.868Z,4.78
2022-12-28T05:23:30.564Z,4.77
2022-12-28T05:24:32.791Z,4.79
2022-12-28T05:25:34.953Z,4.81
2022-12-28T05:26:37.204Z,4.79
2022-12-28T05:27:39.548Z,4.84
2022-12-28T05:28:42.100Z,4.89
2022-12-28T05:29:44.303Z,4.96
2022-12-28T05:30:46.631Z,5.02
2022-12-28T05:31:48.905Z,4.99
2022-12-28T05:32:51.152Z,5.06
2022-12-28T05:33:54.312Z,5.03
2022-12-28T05:34:56.511Z,5.01
2022-12-28T05:36:06.631Z,4.87
2022-12-28T05:37:08.822Z,4.92
2022-12-28T05:38:11.373Z,5.01
2022-12-28T05:39:13.620Z,5.09
2022-12-28T05:40:15.876Z,5.12
2022-12-28T05:41:21.183Z,5.17
2022-12-28T05:42:23.370Z,5.11
2022-12-28T05:43:25.637Z,5.20
2022-12-28T05:44:28.320Z,4.97
2022-12-28T05:45:30.502Z,4.97
2022-12-28T05:46:34.431Z,4.96
2022-12-28T05:47:36.743Z,4.99
2022-12-28T05:48:41.127Z,4.96
2022-12-28T05:49:43.287Z,4.95
2022-12-28T05:50:45.702Z,5.00
2022-12-28T05:51:54.063Z,5.03
2022-12-28T05:52:56.289Z,5.07
2022-12-28T05:54:00.299Z,5.07
2022-12-28T05:55:03.067Z,5.04
2022-12-28T05:56:13.904Z,5.05
2022-12-28T05:57:17.010Z,5.08
2022-12-28T05:58:19.157Z,5.09
2022-12-28T05:59:21.518Z,5.15
2022-12-28T06:00:23.731Z,5.09
2022-12-28T06:01:29.342Z,5.04
2022-12-28T06:02:31.671Z,5.14
2022-12-28T06:03:34.200Z,5.16
2022-12-28T06:04:36.509Z,5.16
2022-12-28T06:05:38.744Z,5.20
2022-12-28T06:06:40.923Z,5.12
2022-12-28T06:07:43.082Z,5.21
2022-12-28T06:08:47.421Z,5.18
2022-12-28T06:09:49.827Z,5.15
2022-12-28T06:10:52.153Z,5.18
2022-12-28T06:11:54.573Z,5.24
2022-12-28T06:12:56.945Z,5.23
2022-12-28T06:14:00.107Z,5.36
2022-12-28T06:15:02.485Z,5.30
2022-12-28T06:16:12.029Z,5.26
2022-12-28T06:17:14.278Z,5.32
2022-12-28T06:18:16.452Z,5.36
2022-12-28T06:19:18.767Z,5.36
2022-12-28T06:20:20.935Z,5.40
2022-12-28T06:21:24.338Z,5.39
2022-12-28T06:22:27.521Z,5.45
2022-12-28T06:23:30.010Z,5.45
2022-12-28T06:24:32.362Z,5.35
2022-12-28T06:25:34.569Z,5.36
2022-12-28T06:26:38.779Z,5.37
2022-12-28T06:27:41.011Z,5.40
2022-12-28T06:28:43.399Z,5.47
2022-12-28T06:29:45.613Z,5.42
2022-12-28T06:30:52.536Z,5.47
2022-12-28T06:31:56.543Z,5.56
2022-12-28T06:32:58.842Z,5.60
2022-12-28T06:34:03.324Z,5.64
2022-12-28T06:35:05.863Z,5.67
2022-12-28T06:36:20.174Z,5.69
2022-12-28T06:37:22.875Z,5.65
2022-12-28T06:38:26.833Z,5.72
2022-12-28T06:39:29.218Z,5.69
2022-12-28T06:41:02.518Z,5.65
2022-12-28T06:41:54.039Z,5.76
2022-12-28T06:42:56.616Z,5.79
2022-12-28T06:43:59.808Z,5.80
2022-12-28T06:45:02.037Z,5.75
2022-12-28T06:46:04.962Z,5.58
2022-12-28T06:47:07.192Z,5.48
2022-12-28T06:48:09.380Z,5.54
2022-12-28T06:49:11.609Z,5.48
2022-12-28T06:50:13.879Z,5.41
2022-12-28T06:51:18.552Z,5.52
2022-12-28T06:52:20.809Z,5.57
2022-12-28T06:53:24.356Z,5.65
2022-12-28T06:54:26.550Z,5.72
2022-12-28T06:55:28.830Z,5.76
2022-12-28T06:56:33.152Z,5.77
2022-12-28T06:57:35.332Z,5.84
2022-12-28T06:58:37.649Z,5.82
2022-12-28T06:59:39.842Z,5.81
2022-12-28T07:00:42.264Z,5.86
2022-12-28T07:01:46.026Z,5.89
2022-12-28T07:02:48.646Z,5.89
2022-12-28T07:03:53.490Z,5.85
2022-12-28T07:04:55.664Z,5.86
2022-12-28T07:06:01.720Z,5.87
2022-12-28T07:07:03.902Z,5.85
2022-12-28T07:08:12.263Z,5.91
2022-12-28T07:09:16.688Z,5.87
2022-12-28T07:10:19.050Z,5.88
2022-12-28T07:11:22.126Z,5.96
2022-12-28T07:12:24.353Z,5.98
2022-12-28T07:13:28.437Z,6.00
2022-12-28T07:14:32.272Z,5.92
2022-12-28T07:15:37.510Z,5.93
2022-12-28T07:17:41.261Z,5.95
2022-12-28T07:18:43.682Z,5.89
2022-12-28T07:19:45.933Z,5.83
2022-12-28T07:20:48.124Z,5.83
2022-12-28T07:21:50.455Z,5.87
2022-12-28T07:22:54.586Z,5.85
2022-12-28T07:23:57.500Z,5.89
2022-12-28T07:24:59.762Z,5.91
2022-12-28T07:26:13.863Z,5.92
2022-12-28T07:27:16.172Z,5.75
2022-12-28T07:28:18.347Z,5.70
2022-12-28T07:29:20.541Z,5.59
2022-12-28T07:30:22.818Z,5.59
2022-12-28T07:31:30.958Z,5.69
2022-12-28T07:32:36.888Z,5.75
2022-12-28T07:33:39.881Z,5.80
2022-12-28T07:34:42.131Z,5.87
2022-12-28T07:35:44.331Z,5.87
2022-12-28T07:36:46.546Z,5.91
2022-12-28T07:37:49.724Z,5.92
2022-12-28T07:38:52.379Z,5.93
2022-12-28T07:39:54.572Z,5.87
2022-12-28T07:41:05.125Z,5.62
2022-12-28T07:42:10.779Z,5.63
2022-12-28T07:43:13.706Z,5.65
2022-12-28T07:44:16.113Z,5.69
2022-12-28T07:45:18.332Z,5.66
2022-12-28T07:46:24.001Z,5.69
2022-12-28T07:47:26.256Z,5.76
2022-12-28T07:48:31.356Z,5.80
2022-12-28T07:49:33.923Z,5.62
2022-12-28T07:50:38.176Z,5.65
2022-12-28T07:51:40.651Z,5.69
2022-12-28T07:52:42.866Z,5.76
2022-12-28T07:53:47.209Z,5.77
2022-12-28T07:54:49.397Z,5.88
2022-12-28T07:55:58.752Z,5.91
2022-12-28T07:57:01.003Z,5.82
2022-12-28T07:58:03.693Z,5.72
2022-12-28T07:59:06.931Z,5.76
2022-12-28T08:00:10.010Z,5.85
2022-12-28T08:01:17.559Z,5.96
2022-12-28T08:02:19.880Z,5.96
2022-12-28T08:03:22.081Z,5.97
2022-12-28T08:04:24.276Z,6.04
2022-12-28T08:05:26.480Z,5.82
2022-12-28T08:06:30.053Z,5.66
2022-12-28T08:07:32.273Z,5.68
2022-12-28T08:08:36.207Z,5.85
2022-12-28T08:09:38.413Z,5.86
2022-12-28T08:10:40.623Z,5.94
2022-12-28T08:11:45.433Z,5.89
2022-12-28T08:12:47.675Z,5.81
2022-12-28T08:13:51.833Z,5.89
2022-12-28T08:14:54.067Z,5.88
2022-12-28T08:15:56.427Z,5.91
2022-12-28T08:16:58.682Z,5.92
2022-12-28T08:18:00.884Z,5.92
2022-12-28T08:19:03.122Z,5.98
2022-12-28T08:20:05.845Z,5.95
2022-12-28T08:21:11.758Z,5.92
2022-12-28T08:22:13.958Z,5.97
2022-12-28T08:23:16.155Z,6.10
2022-12-28T08:24:19.792Z,6.13
2022-12-28T08:25:22.073Z,6.11
2022-12-28T08:26:30.099Z,6.08
2022-12-28T08:27:38.164Z,5.96
2022-12-28T08:28:43.038Z,6.01
2022-12-28T08:29:45.278Z,6.12
2022-12-28T08:30:47.536Z,6.01
2022-12-28T08:31:50.159Z,6.01
2022-12-28T08:32:52.389Z,6.07
2022-12-28T08:33:56.066Z,6.15
2022-12-28T08:34:58.307Z,6.24
2022-12-28T08:36:00.670Z,6.37
2022-12-28T08:37:02.925Z,6.43
2022-12-28T08:38:05.174Z,6.47
2022-12-28T08:39:07.815Z,6.42
2022-12-28T08:40:10.827Z,6.45
2022-12-28T08:41:19.064Z,6.30
2022-12-28T08:42:21.284Z,6.34
2022-12-28T08:43:23.854Z,6.33
2022-12-28T08:44:26.455Z,6.39
2022-12-28T08:45:29.403Z,6.56
2022-12-28T08:46:34.441Z,6.60
2022-12-28T08:47:36.795Z,6.54
2022-12-28T08:48:39.516Z,6.64
2022-12-28T08:49:42.349Z,6.62
2022-12-28T08:50:44.630Z,6.68
2022-12-28T08:51:46.899Z,6.66
2022-12-28T08:52:49.113Z,6.62
2022-12-28T08:53:51.913Z,6.63
2022-12-28T08:54:54.127Z,6.73
2022-12-28T08:56:00.076Z,6.79
2022-12-28T08:57:05.002Z,6.73
2022-12-28T08:58:07.260Z,6.80
2022-12-28T08:59:14.186Z,6.88
2022-12-28T09:00:16.660Z,7.01
2022-12-28T09:01:20.326Z,7.09
2022-12-28T09:02:22.812Z,7.10
2022-12-28T09:03:25.269Z,7.05
2022-12-28T09:04:27.747Z,7.03
2022-12-28T09:05:33.290Z,7.04
2022-12-28T09:06:39.939Z,7.17
2022-12-28T09:07:42.184Z,7.19
2022-12-28T09:09:03.148Z,7.08
2022-12-28T09:10:08.807Z,7.07
2022-12-28T09:11:14.007Z,7.23
2022-12-28T09:12:16.224Z,7.24
2022-12-28T09:13:18.506Z,7.33
2022-12-28T09:14:24.273Z,7.39
2022-12-28T09:15:26.871Z,7.45
2022-12-28T09:16:29.455Z,7.38
2022-12-28T09:17:31.711Z,7.47
2022-12-28T09:18:34.665Z,7.39
2022-12-28T09:19:36.864Z,7.49
2022-12-28T09:20:41.963Z,7.60
2022-12-28T09:21:49.350Z,7.60
2022-12-28T09:22:51.759Z,7.55
2022-12-28T09:23:55.253Z,7.65
2022-12-28T09:24:57.397Z,7.75
2022-12-28T09:26:20.934Z,7.72
2022-12-28T09:27:23.141Z,7.77
2022-12-28T09:28:25.351Z,7.82
2022-12-28T09:29:27.849Z,7.85
2022-12-28T09:30:30.075Z,7.92
2022-12-28T09:31:35.798Z,7.96
2022-12-28T09:32:38.077Z,8.04
2022-12-28T09:34:34.443Z,8.14
2022-12-28T09:35:20.907Z,8.28
2022-12-28T09:36:23.112Z,8.32
2022-12-28T09:37:25.328Z,8.39
2022-12-28T09:38:27.595Z,8.37
2022-12-28T09:39:30.182Z,8.41
2022-12-28T09:40:34.916Z,8.51
2022-12-28T09:41:39.801Z,8.51
2022-12-28T09:42:43.092Z,8.66
2022-12-28T09:43:45.252Z,8.66
2022-12-28T09:44:55.828Z,8.66
2022-12-28T09:45:58.820Z,8.76
2022-12-28T09:47:20.489Z,8.79
2022-12-28T09:48:23.867Z,8.78
2022-12-28T09:49:41.710Z,8.89
2022-12-28T09:50:44.010Z,8.92
2022-12-28T09:52:17.725Z,9.05
2022-12-28T09:53:26.561Z,9.19
2022-12-28T09:54:28.850Z,9.15
2022-12-28T09:55:36.221Z,9.21
2022-12-28T09:56:41.454Z,9.25
2022-12-28T09:57:48.848Z,9.37
2022-12-28T09:58:51.616Z,9.57
2022-12-28T09:59:53.837Z,9.55
2022-12-28T10:00:58.372Z,9.47
2022-12-28T10:02:04.776Z,9.58
2022-12-28T10:03:20.370Z,9.69
2022-12-28T10:04:22.707Z,9.82
2022-12-28T10:05:26.819Z,9.75
2022-12-28T10:06:36.737Z,9.75
2022-12-28T10:07:38.978Z,9.73
2022-12-28T10:08:46.324Z,9.77
2022-12-28T10:09:48.896Z,9.87
2022-12-28T10:10:52.802Z,9.91
2022-12-28T10:11:55.371Z,9.91
2022-12-28T10:13:01.654Z,9.96
2022-12-28T10:14:18.197Z,10.09
2022-12-28T10:15:24.001Z,10.09
2022-12-28T10:16:32.875Z,10.10
2022-12-28T10:17:35.316Z,10.10
2022-12-28T10:18:39.600Z,10.03
2022-12-28T10:19:45.777Z,9.95
2022-12-28T10:20:48.741Z,9.93
2022-12-28T10:22:02.875Z,10.09
2022-12-28T10:23:05.247Z,10.08
2022-12-28T10:25:30.322Z,10.07
2022-12-28T10:26:33.587Z,10.15
2022-12-28T10:27:35.870Z,10.20
2022-12-28T10:29:04.078Z,10.33
2022-12-28T10:30:15.709Z,10.30
2022-12-28T10:31:32.282Z,10.29
2022-12-28T10:32:49.732Z,10.36
2022-12-28T10:33:52.187Z,10.27
2022-12-28T10:35:01.423Z,10.15
2022-12-28T10:36:06.017Z,10.11
2022-12-28T10:37:17.241Z,10.20
2022-12-28T10:38:42.505Z,10.35
2022-12-28T10:39:52.387Z,10.32
2022-12-28T10:41:07.172Z,10.24
2022-12-28T10:42:21.504Z,10.29
2022-12-28T10:43:32.069Z,10.28
2022-12-28T10:44:40.041Z,10.33
2022-12-28T10:45:49.287Z,10.60
2022-12-28T10:46:56.236Z,10.42
2022-12-28T10:47:58.652Z,10.56
2022-12-28T10:49:03.413Z,10.55
2022-12-28T10:51:29.909Z,10.72
2022-12-28T10:52:32.422Z,10.83
2022-12-28T10:53:47.374Z,11.13
2022-12-28T10:55:07.537Z,11.05
2022-12-28T10:56:13.605Z,11.39
2022-12-28T10:57:20.802Z,11.28
2022-12-28T10:58:33.869Z,11.48
2022-12-28T10:59:36.534Z,11.54
2022-12-28T11:00:39.638Z,11.72
2022-12-28T11:01:43.660Z,12.04
2022-12-28T11:02:46.516Z,11.75
2022-12-28T11:04:17.523Z,11.46
2022-12-28T11:05:24.866Z,11.46
2022-12-28T11:06:32.687Z,11.35
2022-12-28T11:07:38.210Z,11.11
2022-12-28T11:08:42.075Z,11.12
2022-12-28T11:09:44.310Z,11.12
2022-12-28T11:10:46.539Z,11.11
2022-12-28T11:11:50.711Z,11.24
2022-12-28T11:12:56.056Z,11.18
2022-12-28T11:14:18.103Z,10.93
2022-12-28T11:15:24.003Z,10.77
2022-12-28T11:16:27.218Z,10.67
2022-12-28T11:17:37.575Z,10.65
2022-12-28T11:18:40.667Z,10.82
2022-12-28T11:19:43.477Z,10.83
2022-12-28T11:20:51.119Z,10.78
2022-12-28T11:21:53.623Z,10.80
2022-12-28T11:22:55.953Z,10.93
2022-12-28T11:23:58.194Z,11.06
2022-12-28T11:25:02.354Z,10.99
2022-12-28T11:26:11.112Z,11.12
2022-12-28T11:27:16.925Z,10.83
2022-12-28T11:28:22.417Z,10.99
2022-12-28T11:29:24.942Z,11.03
2022-12-28T11:30:28.739Z,10.97
2022-12-28T11:31:34.937Z,10.85
2022-12-28T11:32:43.657Z,10.99
2022-12-28T11:33:59.928Z,11.19
2022-12-28T11:35:03.179Z,11.05
2022-12-28T11:36:10.099Z,11.17
2022-12-28T11:37:15.702Z,11.21
2022-12-28T11:38:47.147Z,11.31
2022-12-28T11:39:51.638Z,11.20
2022-12-28T11:40:55.060Z,11.16
2022-12-28T11:43:30.624Z,11.22
2022-12-28T11:44:32.842Z,11.22
2022-12-28T11:46:26.232Z,10.84
2022-12-28T11:47:33.515Z,11.06
2022-12-28T11:48:45.054Z,10.84
2022-12-28T11:49:48.033Z,10.98
2022-12-28T11:50:52.382Z,11.04
2022-12-28T11:52:34.305Z,11.03
2022-12-28T11:53:59.604Z,11.18
2022-12-28T11:55:22.040Z,11.33
2022-12-28T11:56:44.098Z,11.30
2022-12-28T11:57:46.336Z,11.55
2022-12-28T11:59:03.796Z,11.66
2022-12-28T12:00:23.280Z,11.96
2022-12-28T12:01:36.915Z,11.98
2022-12-28T12:02:40.677Z,12.02
2022-12-28T12:03:57.940Z,11.85
2022-12-28T12:05:20.291Z,11.85
2022-12-28T12:06:44.102Z,11.88
2022-12-28T12:07:47.982Z,12.14
2022-12-28T12:08:50.546Z,12.04
2022-12-28T12:10:27.314Z,12.07
2022-12-28T12:11:33.136Z,11.97
2022-12-28T12:12:41.707Z,11.91
2022-12-28T12:13:48.327Z,11.80
2022-12-28T12:15:02.448Z,11.52
2022-12-28T12:16:17.425Z,11.52
2022-12-28T12:17:43.296Z,11.58
2022-12-28T12:18:55.377Z,11.26
2022-12-28T12:20:02.764Z,11.50
2022-12-28T12:21:15.789Z,11.35
2022-12-28T12:22:26.398Z,11.26
2022-12-28T12:23:32.475Z,11.41
2022-12-28T12:24:48.613Z,11.28
2022-12-28T12:25:55.455Z,11.24
2022-12-28T12:27:12.326Z,11.36
2022-12-28T12:28:48.513Z,11.21
2022-12-28T12:30:02.379Z,11.10
2022-12-28T12:31:11.784Z,11.07
2022-12-28T12:32:38.521Z,11.00
2022-12-28T12:33:46.488Z,10.84
2022-12-28T12:35:04.606Z,10.91
2022-12-28T12:36:21.727Z,10.85
2022-12-28T12:37:49.066Z,10.85
2022-12-28T12:39:12.914Z,11.00
2022-12-28T12:40:52.443Z,10.91
2022-12-28T12:42:06.344Z,10.85
2022-12-28T12:43:27.054Z,10.87
2022-12-28T12:44:38.667Z,10.85
2022-12-28T12:46:05.466Z,10.84
2022-12-28T12:47:37.286Z,10.87
2022-12-28T12:49:15.184Z,10.94
2022-12-28T12:50:29.198Z,10.95
2022-12-28T12:51:45.437Z,10.87
2022-12-28T12:53:12.109Z,10.92
2022-12-28T12:54:35.561Z,10.94
2022-12-28T12:55:55.864Z,10.96
2022-12-28T12:57:18.108Z,11.05
2022-12-28T12:58:42.071Z,11.02
2022-12-28T13:00:12.140Z,11.09
2022-12-28T13:01:40.938Z,11.09
2022-12-28T13:02:56.513Z,11.04
2022-12-28T13:04:08.628Z,11.12
2022-12-28T13:05:21.562Z,11.00
2022-12-28T13:06:29.387Z,11.13
2022-12-28T13:07:33.438Z,11.08
2022-12-28T13:08:48.738Z,11.02
2022-12-28T13:09:54.706Z,10.99
2022-12-28T13:10:57.402Z,11.07
2022-12-28T13:12:01.294Z,11.09
2022-12-28T13:13:05.488Z,11.06
2022-12-28T13:14:20.768Z,11.04
2022-12-28T13:15:23.075Z,11.06
2022-12-28T13:16:28.824Z,11.05
2022-12-28T13:17:31.234Z,10.94
2022-12-28T13:18:44.517Z,10.97
2022-12-28T13:19:47.684Z,10.89
2022-12-28T13:21:08.921Z,10.79
2022-12-28T13:22:31.296Z,10.82
2022-12-28T13:23:43.416Z,10.86
2022-12-28T13:24:45.959Z,10.93
2022-12-28T13:25:51.348Z,10.94
2022-12-28T13:26:55.437Z,10.84
2022-12-28T13:28:01.166Z,10.92
2022-12-28T13:29:09.137Z,10.96
2022-12-28T13:30:30.503Z,10.93
2022-12-28T13:31:38.921Z,10.85
2022-12-28T13:32:51.625Z,10.78
2022-12-28T13:34:05.107Z,10.76
2022-12-28T13:35:18.569Z,10.70
2022-12-28T13:36:23.343Z,10.72
2022-12-28T13:37:25.664Z,10.68
2022-12-28T13:38:27.979Z,10.75
2022-12-28T13:39:35.472Z,10.87
2022-12-28T13:40:52.770Z,10.80
2022-12-28T13:42:05.630Z,10.84
2022-12-28T13:43:25.582Z,10.77
2022-12-28T13:44:36.520Z,10.75
2022-12-28T13:45:38.862Z,10.72
2022-12-28T13:46:44.947Z,10.78
2022-12-28T13:47:50.709Z,10.77
2022-12-28T13:48:57.898Z,10.68
2022-12-28T13:50:13.044Z,10.69
2022-12-28T13:51:18.357Z,10.74
2022-12-28T13:52:28.947Z,10.78
2022-12-28T13:53:32.168Z,10.68
2022-12-28T13:54:34.868Z,10.59
2022-12-28T13:55:44.642Z,10.60
2022-12-28T13:56:47.044Z,10.65
2022-12-28T13:57:59.193Z,10.66
2022-12-28T13:59:07.649Z,10.75
2022-12-28T14:00:11.085Z,10.63
2022-12-28T14:01:16.780Z,10.68
2022-12-28T14:02:22.161Z,10.67
2022-12-28T14:03:25.181Z,10.67
2022-12-28T14:04:52.180Z,10.54
2022-12-28T14:05:59.872Z,10.57
2022-12-28T14:07:02.053Z,10.62
2022-12-28T14:08:06.723Z,10.65
2022-12-28T14:09:13.830Z,10.64
2022-12-28T14:10:17.085Z,10.65
2022-12-28T14:11:19.683Z,10.65
2022-12-28T14:12:22.401Z,10.61
2022-12-28T14:13:25.376Z,10.63
2022-12-28T14:14:28.834Z,10.61
2022-12-28T14:15:38.956Z,10.54
2022-12-28T14:16:44.035Z,10.57
2022-12-28T14:17:49.236Z,10.57
2022-12-28T14:18:52.112Z,10.64
2022-12-28T14:19:55.901Z,10.61
2022-12-28T14:20:59.153Z,10.67
2022-12-28T14:22:01.512Z,10.77
2022-12-28T14:23:39.789Z,10.90
2022-12-28T14:25:04.983Z,10.92
2022-12-28T14:26:20.403Z,10.86
2022-12-28T14:27:22.689Z,10.80
2022-12-28T14:29:03.623Z,10.83
2022-12-28T14:30:08.437Z,10.83
2022-12-28T14:31:13.100Z,10.81
2022-12-28T14:32:16.328Z,10.89
2022-12-28T14:33:28.232Z,10.91
2022-12-28T14:34:33.752Z,10.78
2022-12-28T14:35:36.042Z,10.80
2022-12-28T14:36:49.006Z,10.81
2022-12-28T14:37:55.027Z,10.86
2022-12-28T14:39:04.426Z,10.85
2022-12-28T14:40:21.103Z,10.91
2022-12-28T14:41:45.129Z,10.86
2022-12-28T14:42:51.832Z,10.94
2022-12-28T14:43:56.889Z,10.85
2022-12-28T14:44:59.397Z,10.87
2022-12-28T14:46:16.408Z,10.86
2022-12-28T14:47:44.774Z,10.96
2022-12-28T14:48:47.245Z,10.97
2022-12-28T14:49:57.518Z,10.88
2022-12-28T14:51:24.161Z,10.95
2022-12-28T14:52:35.738Z,10.87
2022-12-28T14:53:37.990Z,10.88
2022-12-28T14:54:53.315Z,10.90
2022-12-28T14:56:06.943Z,10.78
2022-12-28T14:57:34.041Z,10.79